Chitose — JD2925 — position and weather

sailwx.info

Track history (hours):
 
Tides and Currents Weather Stations Pressure Air Temp Water Temp Dewpoint Dewpoint Depression Visibility Wind Speed Wind Dir Waves Ship Positions

Chitose

Last reported at 2016-Feb-09 21:33 UTC. Time now 2016-Feb-09 22:28 UTC.
Position N 35°29' E 139°46'.

Length 33 m; draft 3.8 m.

Type: Tug. MMSI: 431000953.

Date/timePositionNaut miles runAvg speedWind from/ knotsBaromVisibWave heightAir tempDewpointWater temp
2016-Feb-09 21:33N 35°29' E 139°46'5 5.4
2016-Feb-09 20:33N 35°27' E 139°39'0 0.0
2016-Feb-09 09:33N 35°27' E 139°40'5 4.6
2016-Feb-09 08:33N 35°30' E 139°44'3 2.7
2016-Feb-09 07:33N 35°28' E 139°42'1 0.6
2016-Feb-09 06:34N 35°28' E 139°42'2 1.8
2016-Feb-09 05:33N 35°27' E 139°40'0 0.0
2016-Feb-09 04:33N 35°27' E 139°40'0 0.0
2016-Feb-09 03:33N 35°27' E 139°40'0 0.4
2016-Feb-09 02:33N 35°27' E 139°40'6 6.3
2016-Feb-09 01:33N 35°31' E 139°46'1 1.3
2016-Feb-09 00:33N 35°30' E 139°47'1 1.4
2016-Feb-08 23:33N 35°29' E 139°46'6 5.8
2016-Feb-08 22:33N 35°27' E 139°40'0 0.0
2016-Feb-08 21:33N 35°27' E 139°40'0 0.0
2016-Feb-08 20:33N 35°27' E 139°40'4 0.3
2016-Feb-08 09:34N 35°28' E 139°44'2 2.1
2016-Feb-08 08:34N 35°29' E 139°43'2 2.0
2016-Feb-08 07:33N 35°28' E 139°42'0 0.0
2016-Feb-08 06:33N 35°28' E 139°42'3 2.5
2016-Feb-08 05:33N 35°28' E 139°39'1 1.3
2016-Feb-08 04:33N 35°28' E 139°40'0 0.0
2016-Feb-08 03:33N 35°28' E 139°40'0 0.0
2016-Feb-08 02:33N 35°28' E 139°40'4 3.5
2016-Feb-08 01:33N 35°29' E 139°44'0 0.3
2016-Feb-08 00:33N 35°29' E 139°45'2 1.8
2016-Feb-07 23:33N 35°27' E 139°46'5 5.0
2016-Feb-07 22:33N 35°27' E 139°40'0 0.0
2016-Feb-07 05:07N 35°27' E 139°40'1 1.0
2016-Feb-07 04:34N 35°27' E 139°40'1 1.4
2016-Feb-07 03:34N 35°26' E 139°42'4 3.6
2016-Feb-07 02:34N 35°29' E 139°45'1 0.6
2016-Feb-07 01:34N 35°29' E 139°45'1 0.9
2016-Feb-07 00:34N 35°28' E 139°45'2 2.2
2016-Feb-06 23:33N 35°28' E 139°43'1 1.0
2016-Feb-06 22:34N 35°27' E 139°43'1 0.6
2016-Feb-06 21:34N 35°27' E 139°43'0 0.0
2016-Feb-06 20:34N 35°27' E 139°43'0 0.0
2016-Feb-06 19:34N 35°27' E 139°43'0 0.0
2016-Feb-06 18:34N 35°27' E 139°43'3 3.0
2016-Feb-06 17:33N 35°24' E 139°41'1 1.0
2016-Feb-06 16:33N 35°23' E 139°40'0 0.0
2016-Feb-06 15:33N 35°23' E 139°40'0 0.0
2016-Feb-06 14:34N 35°23' E 139°40'1 0.9
2016-Feb-06 13:33N 35°24' E 139°41'1 0.8
2016-Feb-06 12:34N 35°23' E 139°41'6 6.1
2016-Feb-06 11:33N 35°29' E 139°44'1 0.9
2016-Feb-06 10:33N 35°28' E 139°45'3 3.5
2016-Feb-06 09:33N 35°27' E 139°41'1 0.5
2016-Feb-06 08:33N 35°27' E 139°41'1 0.6
2016-Feb-06 07:33N 35°27' E 139°42'1 0.8
2016-Feb-06 06:33N 35°27' E 139°41'1 1.3
2016-Feb-06 05:33N 35°27' E 139°39'0 0.0
2016-Feb-06 04:33N 35°27' E 139°39'0 0.0
2016-Feb-06 03:33N 35°27' E 139°39'0 0.0
2016-Feb-06 02:33N 35°27' E 139°39'1 1.2
2016-Feb-06 01:33N 35°27' E 139°41'2 1.9
2016-Feb-06 00:33N 35°27' E 139°39'0 0.0
2016-Feb-05 23:33N 35°27' E 139°39'0 0.0
2016-Feb-05 22:33N 35°27' E 139°39'0 0.0
2016-Feb-05 21:33N 35°27' E 139°39'0 0.0
2016-Feb-05 20:33N 35°27' E 139°39'0 0.0
2016-Feb-05 07:08N 35°27' E 139°39'0 0.0
2016-Feb-05 06:33N 35°27' E 139°39'0 0.0
2016-Feb-05 05:33N 35°27' E 139°39'0 0.0
2016-Feb-05 04:33N 35°27' E 139°39'0 0.0
2016-Feb-05 03:33N 35°27' E 139°39'0 0.0
2016-Feb-05 02:33N 35°27' E 139°39'2 2.1
2016-Feb-05 01:33N 35°26' E 139°41'2 1.7
2016-Feb-05 00:33N 35°25' E 139°43'4 3.8
2016-Feb-04 23:33N 35°27' E 139°39'0 0.0
2016-Feb-04 22:33N 35°27' E 139°39'0 0.0
2016-Feb-04 21:33N 35°27' E 139°39'0 0.0
2016-Feb-04 20:33N 35°27' E 139°39'0 0.0
2016-Feb-04 07:10N 35°27' E 139°39'0 0.0
2016-Feb-04 06:34N 35°27' E 139°39'1 0.7
2016-Feb-04 05:34N 35°27' E 139°39'3 3.2
2016-Feb-04 04:34N 35°26' E 139°43'3 2.7
2016-Feb-04 03:33N 35°29' E 139°42'3 2.8
2016-Feb-04 02:34N 35°30' E 139°45'3 3.1
2016-Feb-04 01:34N 35°28' E 139°42'3 3.2
2016-Feb-04 00:33N 35°27' E 139°39'0 0.0
2016-Feb-03 23:34N 35°27' E 139°39'0 0.0
2016-Feb-03 22:34N 35°27' E 139°39'0 0.0
2016-Feb-03 06:33N 35°27' E 139°39'0 0.0
2016-Feb-03 05:34N 35°27' E 139°39'2 1.8
2016-Feb-03 04:33N 35°27' E 139°41'2 1.8
2016-Feb-03 03:34N 35°27' E 139°39'0 0.4
2016-Feb-03 02:33N 35°27' E 139°39'0 0.4
2016-Feb-03 01:33N 35°27' E 139°39'0 0.0
2016-Feb-03 00:33N 35°27' E 139°39'0 0.0
2016-Feb-02 23:33N 35°27' E 139°39'0 0.1
2016-Feb-02 22:33N 35°27' E 139°39'3 3.1
2016-Feb-02 21:34N 35°26' E 139°42'3 3.0
2016-Feb-02 20:33N 35°27' E 139°39'0 0.0
2016-Feb-02 07:12N 35°27' E 139°39'0 0.0
2016-Feb-02 06:33N 35°27' E 139°39'0 0.4
2016-Feb-02 05:34N 35°27' E 139°39'6 5.8
2016-Feb-02 04:33N 35°30' E 139°45'3 2.6
2016-Feb-02 03:33N 35°29' E 139°42'2 2.2
2016-Feb-02 02:33N 35°27' E 139°43'4 3.5
2016-Feb-02 01:33N 35°27' E 139°39'0 0.0
2016-Feb-02 00:33N 35°27' E 139°39'8 7.7
2016-Feb-01 23:34N 35°30' E 139°48'2 2.2
2016-Feb-01 22:33N 35°32' E 139°46'7 7.2
2016-Feb-01 21:34N 35°27' E 139°39'3 0.2
2016-Feb-01 07:34N 35°29' E 139°42'3 3.4
2016-Feb-01 06:33N 35°30' E 139°46'5 4.8
2016-Feb-01 05:34N 35°27' E 139°42'3 3.1
2016-Feb-01 04:34N 35°27' E 139°39'0 0.0
2016-Feb-01 03:34N 35°27' E 139°39'0 0.0
2016-Feb-01 02:34N 35°27' E 139°39'0 0.0
2016-Feb-01 01:34N 35°27' E 139°39'0 0.0
2016-Feb-01 00:34N 35°27' E 139°39'0 0.0
2016-Jan-31 23:33N 35°27' E 139°39'3 2.5
2016-Jan-31 22:34N 35°25' E 139°41'1 1.4
2016-Jan-31 21:33N 35°27' E 139°41'1 1.4
2016-Jan-31 20:33N 35°27' E 139°40'  
Track history (hours):
 
Tides and Currents Weather Stations Pressure Air Temp Water Temp Dewpoint Dewpoint Depression Visibility Wind Speed Wind Dir Waves Ship Positions

Chitose

Last reported at 2016-Feb-09 21:33 UTC. Time now 2016-Feb-09 22:28 UTC.
Position N 35°29' E 139°46'.

Length 33 m; draft 3.8 m.

Type: Tug. MMSI: 431000953.

Date/timePositionNaut miles runAvg speedWind from/ knotsBaromVisibWave heightAir tempDewpointWater temp
2016-Feb-09 21:33N 35°29' E 139°46'5 5.4
2016-Feb-09 20:33N 35°27' E 139°39'0 0.0
2016-Feb-09 09:33N 35°27' E 139°40'5 4.6
2016-Feb-09 08:33N 35°30' E 139°44'3 2.7
2016-Feb-09 07:33N 35°28' E 139°42'1 0.6
2016-Feb-09 06:34N 35°28' E 139°42'2 1.8
2016-Feb-09 05:33N 35°27' E 139°40'0 0.0
2016-Feb-09 04:33N 35°27' E 139°40'0 0.0
2016-Feb-09 03:33N 35°27' E 139°40'0 0.4
2016-Feb-09 02:33N 35°27' E 139°40'6 6.3
2016-Feb-09 01:33N 35°31' E 139°46'1 1.3
2016-Feb-09 00:33N 35°30' E 139°47'1 1.4
2016-Feb-08 23:33N 35°29' E 139°46'6 5.8
2016-Feb-08 22:33N 35°27' E 139°40'0 0.0
2016-Feb-08 21:33N 35°27' E 139°40'0 0.0
2016-Feb-08 20:33N 35°27' E 139°40'4 0.3
2016-Feb-08 09:34N 35°28' E 139°44'2 2.1
2016-Feb-08 08:34N 35°29' E 139°43'2 2.0
2016-Feb-08 07:33N 35°28' E 139°42'0 0.0
2016-Feb-08 06:33N 35°28' E 139°42'3 2.5
2016-Feb-08 05:33N 35°28' E 139°39'1 1.3
2016-Feb-08 04:33N 35°28' E 139°40'0 0.0
2016-Feb-08 03:33N 35°28' E 139°40'0 0.0
2016-Feb-08 02:33N 35°28' E 139°40'4 3.5
2016-Feb-08 01:33N 35°29' E 139°44'0 0.3
2016-Feb-08 00:33N 35°29' E 139°45'2 1.8
2016-Feb-07 23:33N 35°27' E 139°46'5 5.0
2016-Feb-07 22:33N 35°27' E 139°40'0 0.0
2016-Feb-07 05:07N 35°27' E 139°40'1 1.0
2016-Feb-07 04:34N 35°27' E 139°40'1 1.4
2016-Feb-07 03:34N 35°26' E 139°42'4 3.6
2016-Feb-07 02:34N 35°29' E 139°45'1 0.6
2016-Feb-07 01:34N 35°29' E 139°45'1 0.9
2016-Feb-07 00:34N 35°28' E 139°45'2 2.2
2016-Feb-06 23:33N 35°28' E 139°43'1 1.0
2016-Feb-06 22:34N 35°27' E 139°43'1 0.6
2016-Feb-06 21:34N 35°27' E 139°43'0 0.0
2016-Feb-06 20:34N 35°27' E 139°43'0 0.0
2016-Feb-06 19:34N 35°27' E 139°43'0 0.0
2016-Feb-06 18:34N 35°27' E 139°43'3 3.0
2016-Feb-06 17:33N 35°24' E 139°41'1 1.0
2016-Feb-06 16:33N 35°23' E 139°40'0 0.0
2016-Feb-06 15:33N 35°23' E 139°40'0 0.0
2016-Feb-06 14:34N 35°23' E 139°40'1 0.9
2016-Feb-06 13:33N 35°24' E 139°41'1 0.8
2016-Feb-06 12:34N 35°23' E 139°41'6 6.1
2016-Feb-06 11:33N 35°29' E 139°44'1 0.9
2016-Feb-06 10:33N 35°28' E 139°45'3 3.5
2016-Feb-06 09:33N 35°27' E 139°41'1 0.5
2016-Feb-06 08:33N 35°27' E 139°41'1 0.6
2016-Feb-06 07:33N 35°27' E 139°42'1 0.8
2016-Feb-06 06:33N 35°27' E 139°41'1 1.3
2016-Feb-06 05:33N 35°27' E 139°39'0 0.0
2016-Feb-06 04:33N 35°27' E 139°39'0 0.0
2016-Feb-06 03:33N 35°27' E 139°39'0 0.0
2016-Feb-06 02:33N 35°27' E 139°39'1 1.2
2016-Feb-06 01:33N 35°27' E 139°41'2 1.9
2016-Feb-06 00:33N 35°27' E 139°39'0 0.0
2016-Feb-05 23:33N 35°27' E 139°39'0 0.0
2016-Feb-05 22:33N 35°27' E 139°39'0 0.0
2016-Feb-05 21:33N 35°27' E 139°39'0 0.0
2016-Feb-05 20:33N 35°27' E 139°39'0 0.0
2016-Feb-05 07:08N 35°27' E 139°39'0 0.0
2016-Feb-05 06:33N 35°27' E 139°39'0 0.0
2016-Feb-05 05:33N 35°27' E 139°39'0 0.0
2016-Feb-05 04:33N 35°27' E 139°39'0 0.0
2016-Feb-05 03:33N 35°27' E 139°39'0 0.0
2016-Feb-05 02:33N 35°27' E 139°39'2 2.1
2016-Feb-05 01:33N 35°26' E 139°41'2 1.7
2016-Feb-05 00:33N 35°25' E 139°43'4 3.8
2016-Feb-04 23:33N 35°27' E 139°39'0 0.0
2016-Feb-04 22:33N 35°27' E 139°39'0 0.0
2016-Feb-04 21:33N 35°27' E 139°39'0 0.0
2016-Feb-04 20:33N 35°27' E 139°39'0 0.0
2016-Feb-04 07:10N 35°27' E 139°39'0 0.0
2016-Feb-04 06:34N 35°27' E 139°39'1 0.7
2016-Feb-04 05:34N 35°27' E 139°39'3 3.2
2016-Feb-04 04:34N 35°26' E 139°43'3 2.7
2016-Feb-04 03:33N 35°29' E 139°42'3 2.8
2016-Feb-04 02:34N 35°30' E 139°45'3 3.1
2016-Feb-04 01:34N 35°28' E 139°42'3 3.2
2016-Feb-04 00:33N 35°27' E 139°39'0 0.0
2016-Feb-03 23:34N 35°27' E 139°39'0 0.0
2016-Feb-03 22:34N 35°27' E 139°39'0 0.0
2016-Feb-03 06:33N 35°27' E 139°39'0 0.0
2016-Feb-03 05:34N 35°27' E 139°39'2 1.8
2016-Feb-03 04:33N 35°27' E 139°41'2 1.8
2016-Feb-03 03:34N 35°27' E 139°39'0 0.4
2016-Feb-03 02:33N 35°27' E 139°39'0 0.4
2016-Feb-03 01:33N 35°27' E 139°39'0 0.0
2016-Feb-03 00:33N 35°27' E 139°39'0 0.0
2016-Feb-02 23:33N 35°27' E 139°39'0 0.1
2016-Feb-02 22:33N 35°27' E 139°39'3 3.1
2016-Feb-02 21:34N 35°26' E 139°42'3 3.0
2016-Feb-02 20:33N 35°27' E 139°39'0 0.0
2016-Feb-02 07:12N 35°27' E 139°39'0 0.0
2016-Feb-02 06:33N 35°27' E 139°39'0 0.4
2016-Feb-02 05:34N 35°27' E 139°39'6 5.8
2016-Feb-02 04:33N 35°30' E 139°45'3 2.6
2016-Feb-02 03:33N 35°29' E 139°42'2 2.2
2016-Feb-02 02:33N 35°27' E 139°43'4 3.5
2016-Feb-02 01:33N 35°27' E 139°39'0 0.0
2016-Feb-02 00:33N 35°27' E 139°39'8 7.7
2016-Feb-01 23:34N 35°30' E 139°48'2 2.2
2016-Feb-01 22:33N 35°32' E 139°46'7 7.2
2016-Feb-01 21:34N 35°27' E 139°39'3 0.2
2016-Feb-01 07:34N 35°29' E 139°42'3 3.4
2016-Feb-01 06:33N 35°30' E 139°46'5 4.8
2016-Feb-01 05:34N 35°27' E 139°42'3 3.1
2016-Feb-01 04:34N 35°27' E 139°39'0 0.0
2016-Feb-01 03:34N 35°27' E 139°39'0 0.0
2016-Feb-01 02:34N 35°27' E 139°39'0 0.0
2016-Feb-01 01:34N 35°27' E 139°39'0 0.0
2016-Feb-01 00:34N 35°27' E 139°39'0 0.0
2016-Jan-31 23:33N 35°27' E 139°39'3 2.5
2016-Jan-31 22:34N 35°25' E 139°41'1 1.4
2016-Jan-31 21:33N 35°27' E 139°41'1 1.4
2016-Jan-31 20:33N 35°27' E 139°40'  

Dump ship's entire track history